Lancaster, Missouri
Current Conditions -  °F | °C
As of 8:50 PM on Friday 19 Dec 2014 (Local Time) from KTVK Reporting Station
Overcast Overcast  
Wind Chill: 26°   Ceiling: 600
Heat Index: 32°   Visibility: 10mi
Dew Point: 32°   Wind: 6mph
Humidity: 100%   Direction: 140°SE
Pressure: 30.23"   Gusts: NA
Location:  40.52°N, 92.53°W
Report Text: KTVK 200250Z AUTO 14005KT 10SM OVC006 00/00 A3023 RMK AO2
Loading
Personal Weather Stations






























Interactive Weather Map New forecast layout! Learn more

10-Day Weather Forecast

Advertisements
Track Severe Weather on mobile